createdAt,value
2023-03-25T00:01:34.373Z,97060.84
2023-03-25T00:04:39.639Z,97061.47
2023-03-25T00:07:41.580Z,97053.81
2023-03-25T00:10:44.502Z,97059.97
2023-03-25T00:13:46.213Z,97061.59
2023-03-25T00:16:48.662Z,97057.53
2023-03-25T00:19:53.268Z,97054.88
2023-03-25T00:22:54.919Z,97042.97
2023-03-25T00:26:01.153Z,97027.50
2023-03-25T00:29:03.796Z,97028.66
2023-03-25T00:32:05.920Z,97041.66
2023-03-25T00:35:10.670Z,97038.91
2023-03-25T00:38:12.339Z,97053.97
2023-03-25T00:41:23.264Z,97025.53
2023-03-25T00:44:25.201Z,97036.16
2023-03-25T00:47:27.190Z,97032.56
2023-03-25T00:50:28.830Z,97041.47
2023-03-25T00:53:30.551Z,97048.50
2023-03-25T00:56:33.846Z,97056.09
2023-03-25T00:59:36.221Z,97045.81
2023-03-25T01:02:39.607Z,97033.88
2023-03-25T01:05:41.678Z,97049.13
2023-03-25T01:08:44.037Z,97043.81
2023-03-25T01:11:47.863Z,97047.53
2023-03-25T01:14:51.102Z,97045.16
2023-03-25T01:17:52.706Z,97050.19
2023-03-25T01:20:54.325Z,97055.94
2023-03-25T01:23:56.428Z,97060.84
2023-03-25T01:26:59.351Z,97057.84
2023-03-25T01:30:02.918Z,97060.19
2023-03-25T01:33:04.467Z,97057.78
2023-03-25T01:36:09.866Z,97044.78
2023-03-25T01:39:11.585Z,97050.38
2023-03-25T01:42:14.567Z,97048.56
2023-03-25T01:45:23.926Z,97051.22
2023-03-25T01:48:28.864Z,97054.75
2023-03-25T01:51:32.517Z,97044.22
2023-03-25T01:54:34.563Z,97051.28
2023-03-25T01:57:40.590Z,97039.06
2023-03-25T02:00:47.728Z,97048.94
2023-03-25T02:03:52.347Z,97055.09
2023-03-25T02:06:55.767Z,97050.63
2023-03-25T02:09:58.433Z,97046.88
2023-03-25T02:13:01.579Z,97045.13
2023-03-25T02:16:11.213Z,97050.44
2023-03-25T02:19:25.041Z,97052.19
2023-03-25T02:22:51.077Z,97046.78
2023-03-25T02:26:05.337Z,97034.28
2023-03-25T02:29:13.501Z,97042.22
2023-03-25T02:32:21.230Z,97037.00
2023-03-25T02:35:30.012Z,97039.66
2023-03-25T02:38:36.774Z,97025.69
2023-03-25T02:41:42.388Z,97014.34
2023-03-25T02:44:49.111Z,97028.34
2023-03-25T02:47:54.522Z,97030.94
2023-03-25T02:50:58.176Z,97026.56
2023-03-25T02:54:03.264Z,97015.94
2023-03-25T03:00:20.419Z,97015.88
2023-03-25T03:03:22.129Z,97020.34
2023-03-25T03:06:24.773Z,96998.22
2023-03-25T03:09:33.737Z,96994.72
2023-03-25T03:12:40.834Z,97008.94
2023-03-25T03:15:46.300Z,96997.47
2023-03-25T03:18:52.044Z,97015.19
2023-03-25T03:21:56.687Z,97017.09
2023-03-25T03:25:01.911Z,97024.28
2023-03-25T03:28:05.859Z,97021.72
2023-03-25T03:31:10.668Z,97019.16
2023-03-25T03:34:15.636Z,97024.53
2023-03-25T03:37:19.664Z,97022.94
2023-03-25T03:40:23.500Z,97015.91
2023-03-25T03:43:26.320Z,97016.88
2023-03-25T03:46:31.136Z,97015.34
2023-03-25T03:49:35.388Z,97013.44
2023-03-25T03:52:40.261Z,97005.75
2023-03-25T03:55:46.347Z,97007.53
2023-03-25T03:58:50.459Z,97015.50
2023-03-25T04:01:56.102Z,97021.59
2023-03-25T04:05:00.881Z,97027.91
2023-03-25T04:08:04.461Z,97018.00
2023-03-25T04:11:10.266Z,97025.00
2023-03-25T04:14:13.561Z,97026.72
2023-03-25T04:17:15.107Z,97031.16
2023-03-25T04:20:23.933Z,97028.41
2023-03-25T04:23:26.118Z,97032.88
2023-03-25T04:26:34.336Z,97026.53
2023-03-25T04:29:36.229Z,97027.47
2023-03-25T04:32:38.017Z,97028.41
2023-03-25T04:35:40.636Z,97026.53
2023-03-25T04:38:45.982Z,97018.56
2023-03-25T04:41:49.818Z,97017.63
2023-03-25T04:44:51.415Z,97020.38
2023-03-25T04:47:54.803Z,97031.66
2023-03-25T04:50:57.910Z,97034.28
2023-03-25T04:53:59.575Z,97020.19
2023-03-25T04:57:03.004Z,97015.72
2023-03-25T05:00:06.612Z,97020.38
2023-03-25T05:03:09.848Z,97029.94
2023-03-25T05:06:11.704Z,97025.66
2023-03-25T05:09:16.250Z,97017.72
2023-03-25T05:12:19.117Z,97033.72
2023-03-25T05:15:20.945Z,97023.31
2023-03-25T05:18:22.683Z,97023.13
2023-03-25T05:21:24.434Z,97027.66
2023-03-25T05:24:26.289Z,97018.66
2023-03-25T05:27:30.314Z,97020.56
2023-03-25T05:30:32.605Z,97016.34
2023-03-25T05:33:34.697Z,97025.16
2023-03-25T05:36:39.109Z,97025.94
2023-03-25T05:39:40.954Z,97037.50
2023-03-25T05:42:47.169Z,97022.44
2023-03-25T05:45:49.216Z,97021.50
2023-03-25T05:48:51.358Z,97032.03
2023-03-25T05:51:54.236Z,97018.66
2023-03-25T05:54:56.048Z,97021.22
2023-03-25T05:57:59.275Z,97023.13
2023-03-25T06:01:03.061Z,97032.78
2023-03-25T06:04:05.043Z,97031.06
2023-03-25T06:07:09.219Z,97021.22
2023-03-25T06:10:10.970Z,97025.66
2023-03-25T06:13:13.953Z,97034.38
2023-03-25T06:16:19.493Z,97030.88
2023-03-25T06:19:21.034Z,97048.41
2023-03-25T06:22:22.588Z,97047.56
2023-03-25T06:25:24.397Z,97049.47
2023-03-25T06:28:27.637Z,97039.78
2023-03-25T06:31:33.404Z,97049.47
2023-03-25T06:34:35.486Z,97053.72
2023-03-25T06:37:37.951Z,97051.06
2023-03-25T06:40:44.770Z,97057.16
2023-03-25T06:43:48.227Z,97053.47
2023-03-25T06:47:25.466Z,97058.59
2023-03-25T06:50:27.659Z,97063.13
2023-03-25T06:53:29.451Z,97058.34
2023-03-25T06:56:31.371Z,97054.34
2023-03-25T06:59:34.358Z,97060.81
2023-03-25T07:02:36.277Z,97059.34
2023-03-25T07:05:38.177Z,97057.56
2023-03-25T07:08:40.275Z,97056.53
2023-03-25T07:11:41.881Z,97052.00
2023-03-25T07:14:50.259Z,97052.00
2023-03-25T07:21:12.808Z,97070.19
2023-03-25T07:24:14.337Z,97068.31
2023-03-25T07:27:15.958Z,97071.50
2023-03-25T07:30:25.743Z,97068.84
2023-03-25T07:33:27.281Z,97073.22
2023-03-25T07:36:29.045Z,97067.97
2023-03-25T07:39:30.788Z,97060.22
2023-03-25T07:42:36.011Z,97063.19
2023-03-25T07:45:51.640Z,97069.72
2023-03-25T07:48:53.401Z,97060.72
2023-03-25T07:51:55.282Z,97068.19
2023-03-25T07:54:57.210Z,97055.94
2023-03-25T07:58:01.165Z,97052.28
2023-03-25T08:01:04.929Z,97063.22
2023-03-25T08:04:06.614Z,97052.28
2023-03-25T08:07:08.262Z,97051.34
2023-03-25T08:10:10.323Z,97061.34
2023-03-25T08:13:12.694Z,97074.41
2023-03-25T08:16:15.821Z,97062.63
2023-03-25T08:19:17.429Z,97069.25
2023-03-25T08:22:19.120Z,97071.56
2023-03-25T08:25:21.019Z,97075.94
2023-03-25T08:28:23.733Z,97076.88
2023-03-25T08:31:31.237Z,97082.09
2023-03-25T08:34:39.880Z,97090.91
2023-03-25T08:37:41.785Z,97083.53
2023-03-25T08:40:44.137Z,97081.72
2023-03-25T08:43:45.990Z,97069.16
2023-03-25T08:46:49.269Z,97069.50
2023-03-25T08:49:50.881Z,97058.47
2023-03-25T08:52:54.712Z,97066.09
2023-03-25T08:55:57.800Z,97080.34
2023-03-25T08:58:59.456Z,97067.63
2023-03-25T09:02:02.496Z,97066.50
2023-03-25T09:05:04.539Z,97069.25
2023-03-25T09:08:07.197Z,97085.50
2023-03-25T09:11:09.053Z,97067.47
2023-03-25T09:14:10.676Z,97065.47
2023-03-25T09:17:13.727Z,97071.34
2023-03-25T09:20:15.457Z,97051.63
2023-03-25T09:23:17.067Z,97070.13
2023-03-25T09:26:18.698Z,97070.31
2023-03-25T09:29:20.262Z,97082.81
2023-03-25T09:32:23.378Z,97092.13
2023-03-25T09:35:25.121Z,97081.31
2023-03-25T09:38:27.278Z,97087.56
2023-03-25T09:41:43.355Z,97091.00
2023-03-25T09:44:52.435Z,97081.50
2023-03-25T09:47:58.160Z,97080.56
2023-03-25T09:51:02.845Z,97070.88
2023-03-25T09:54:13.088Z,97088.09
2023-03-25T09:57:18.373Z,97090.44
2023-03-25T10:00:22.642Z,97081.50
2023-03-25T10:03:29.155Z,97085.13
2023-03-25T10:06:32.383Z,97073.38
2023-03-25T10:09:39.191Z,97078.47
2023-03-25T10:12:44.455Z,97083.03
2023-03-25T10:15:50.296Z,97070.28
2023-03-25T10:18:59.606Z,97074.97
2023-03-25T10:22:03.942Z,97075.84
2023-03-25T10:25:11.064Z,97077.09
2023-03-25T10:28:16.515Z,97062.47
2023-03-25T10:31:20.646Z,97066.22
2023-03-25T10:34:29.709Z,97083.19
2023-03-25T10:37:32.530Z,97072.91
2023-03-25T10:40:36.429Z,97079.41
2023-03-25T10:43:39.519Z,97079.03
2023-03-25T10:46:47.909Z,97076.03
2023-03-25T10:49:52.457Z,97068.38
2023-03-25T10:52:56.676Z,97071.22
2023-03-25T10:55:59.525Z,97078.06
2023-03-25T10:59:04.366Z,97074.69
2023-03-25T11:02:12.673Z,97066.31
2023-03-25T11:05:18.996Z,97088.13
2023-03-25T11:08:25.565Z,97062.69
2023-03-25T11:11:32.265Z,97073.84
2023-03-25T11:14:36.945Z,97079.75
2023-03-25T11:17:39.783Z,97081.69
2023-03-25T11:20:53.786Z,97082.28
2023-03-25T11:23:55.709Z,97081.50
2023-03-25T11:26:57.591Z,97076.94
2023-03-25T11:30:01.403Z,97073.97
2023-03-25T11:33:04.995Z,97066.91
2023-03-25T11:36:12.411Z,97060.59
2023-03-25T11:39:19.540Z,97055.78
2023-03-25T11:42:28.975Z,97060.75
2023-03-25T11:45:35.636Z,97050.34
2023-03-25T11:48:40.478Z,97075.09
2023-03-25T11:51:44.414Z,97057.72
2023-03-25T11:54:46.237Z,97064.94
2023-03-25T11:57:49.544Z,97064.50
2023-03-25T12:00:53.632Z,97064.75
2023-03-25T12:04:05.906Z,97068.16
2023-03-25T12:07:15.470Z,97055.22
2023-03-25T12:10:18.889Z,97073.44
2023-03-25T12:13:29.828Z,97063.91
2023-03-25T12:16:37.630Z,97061.94
2023-03-25T12:19:45.898Z,97069.66
2023-03-25T12:22:55.623Z,97070.44
2023-03-25T12:26:01.294Z,97060.22
2023-03-25T12:29:17.566Z,97072.38
2023-03-25T12:32:30.126Z,97069.91
2023-03-25T12:35:36.335Z,97063.13
2023-03-25T12:38:45.787Z,97051.34
2023-03-25T12:41:54.616Z,97055.78
2023-03-25T12:45:11.098Z,97062.97
2023-03-25T12:48:19.431Z,97056.22
2023-03-25T12:51:25.684Z,97053.03
2023-03-25T12:54:34.590Z,97039.31
2023-03-25T12:57:44.338Z,97035.38
2023-03-25T13:00:52.815Z,97060.50
2023-03-25T13:04:07.543Z,97037.88
2023-03-25T13:07:11.748Z,97044.47
2023-03-25T13:10:20.270Z,97058.06
2023-03-25T13:13:24.313Z,97061.34
2023-03-25T13:16:28.028Z,97061.53
2023-03-25T13:19:32.573Z,97066.56
2023-03-25T13:22:37.183Z,97060.13
2023-03-25T13:25:47.721Z,97057.78
2023-03-25T13:28:51.767Z,97061.50
2023-03-25T13:31:54.038Z,97062.56
2023-03-25T13:34:57.501Z,97058.75
2023-03-25T13:38:01.306Z,97060.66
2023-03-25T13:41:08.561Z,97050.06
2023-03-25T13:44:12.445Z,97057.78
2023-03-25T13:47:18.058Z,97059.28
2023-03-25T13:50:24.506Z,97042.84
2023-03-25T13:53:29.376Z,97054.38
2023-03-25T13:56:49.898Z,97052.25
2023-03-25T14:00:06.387Z,97046.84
2023-03-25T14:03:27.409Z,97056.94
2023-03-25T14:06:37.601Z,97054.09
2023-03-25T14:09:57.145Z,97068.41
2023-03-25T14:12:59.831Z,97073.53
2023-03-25T14:16:04.189Z,97060.25
2023-03-25T14:19:11.951Z,97054.00
2023-03-25T14:25:29.224Z,97076.13
2023-03-25T14:28:37.532Z,97060.44
2023-03-25T14:31:39.176Z,97059.59
2023-03-25T14:34:42.448Z,97057.75
2023-03-25T14:37:44.087Z,97051.63
2023-03-25T14:41:02.127Z,97053.28
2023-03-25T14:44:33.399Z,97050.81
2023-03-25T14:47:37.089Z,97051.31
2023-03-25T14:50:40.981Z,97047.91
2023-03-25T14:53:49.750Z,97046.72
2023-03-25T14:56:57.697Z,97045.81
2023-03-25T15:00:02.025Z,97044.75
2023-03-25T15:03:05.417Z,97044.59
2023-03-25T15:06:09.762Z,97034.75
2023-03-25T15:09:13.139Z,97023.47
2023-03-25T15:12:16.695Z,97027.38
2023-03-25T15:15:26.209Z,97018.38
2023-03-25T15:18:49.498Z,96999.44
2023-03-25T15:22:11.397Z,96993.75
2023-03-25T15:25:16.871Z,96990.28
2023-03-25T15:28:22.603Z,97013.91
2023-03-25T15:31:29.491Z,97031.72
2023-03-25T15:34:41.621Z,97019.44
2023-03-25T15:37:59.380Z,97033.78
2023-03-25T15:41:10.777Z,97039.38
2023-03-25T15:44:24.951Z,97029.22
2023-03-25T15:47:47.579Z,97037.09
2023-03-25T15:51:02.621Z,97036.91
2023-03-25T15:54:17.287Z,97054.25
2023-03-25T15:57:24.306Z,97060.84
2023-03-25T16:00:28.462Z,97036.72
2023-03-25T16:03:31.413Z,97051.38
2023-03-25T16:06:35.296Z,97046.78
2023-03-25T16:09:39.277Z,97046.41
2023-03-25T16:12:42.617Z,97037.59
2023-03-25T16:15:44.736Z,97044.97
2023-03-25T16:18:46.832Z,97079.38
2023-03-25T16:21:49.817Z,97065.25
2023-03-25T16:24:51.590Z,97072.53
2023-03-25T16:27:58.852Z,97054.22
2023-03-25T16:31:02.928Z,97057.31
2023-03-25T16:34:07.031Z,97050.28
2023-03-25T16:37:10.675Z,97060.19
2023-03-25T16:40:19.491Z,97063.22
2023-03-25T16:43:23.616Z,97047.50
2023-03-25T16:46:25.750Z,97052.09
2023-03-25T16:49:29.736Z,97050.50
2023-03-25T16:52:33.019Z,97031.16
2023-03-25T16:55:42.237Z,97039.38
2023-03-25T16:58:54.928Z,97027.81
2023-03-25T17:01:59.769Z,97044.59
2023-03-25T17:05:12.895Z,97029.38
2023-03-25T17:08:15.945Z,97039.13
2023-03-25T17:11:17.514Z,97032.78
2023-03-25T17:14:22.079Z,97035.00
2023-03-25T17:17:32.119Z,97042.09
2023-03-25T17:20:36.884Z,97078.09
2023-03-25T17:23:43.961Z,97095.56
2023-03-25T17:26:54.473Z,97129.06
2023-03-25T17:29:59.019Z,97121.28
2023-03-25T17:33:10.186Z,97129.81
2023-03-25T17:36:12.763Z,97123.19
2023-03-25T17:39:17.875Z,97115.53
2023-03-25T17:42:23.547Z,97112.31
2023-03-25T17:45:27.468Z,97105.22
2023-03-25T17:48:29.177Z,97111.19
2023-03-25T17:51:32.776Z,97121.03
2023-03-25T17:54:34.394Z,97110.34
2023-03-25T17:57:37.493Z,97116.31
2023-03-25T18:00:41.003Z,97098.59
2023-03-25T18:03:46.414Z,97115.53
2023-03-25T18:06:48.170Z,97110.94
2023-03-25T18:09:49.750Z,97116.75
2023-03-25T18:12:51.413Z,97130.00
2023-03-25T18:15:54.675Z,97142.81
2023-03-25T18:18:56.224Z,97162.78
2023-03-25T18:22:06.935Z,97157.25
2023-03-25T18:25:15.786Z,97158.53
2023-03-25T18:28:17.942Z,97175.53
2023-03-25T18:31:23.466Z,97171.25
2023-03-25T18:34:26.109Z,97177.56
2023-03-25T18:37:27.719Z,97173.97
2023-03-25T18:40:31.659Z,97166.91
2023-03-25T18:43:33.459Z,97152.69
2023-03-25T18:46:36.847Z,97174.84
2023-03-25T18:49:38.896Z,97176.56
2023-03-25T18:52:40.553Z,97195.88
2023-03-25T18:55:42.722Z,97185.28
2023-03-25T18:58:44.258Z,97161.28
2023-03-25T19:01:47.578Z,97171.88
2023-03-25T19:05:00.318Z,97183.41
2023-03-25T19:08:06.132Z,97186.94
2023-03-25T19:11:18.991Z,97179.13
2023-03-25T19:14:22.346Z,97192.44
2023-03-25T19:17:25.451Z,97191.59
2023-03-25T19:20:29.494Z,97217.16
2023-03-25T19:23:31.476Z,97212.63
2023-03-25T19:26:33.074Z,97210.06
2023-03-25T19:29:34.897Z,97218.09
2023-03-25T19:32:38.191Z,97213.75
2023-03-25T19:35:39.911Z,97225.44
2023-03-25T19:38:42.807Z,97223.72
2023-03-25T19:41:46.580Z,97226.38
2023-03-25T19:44:48.200Z,97238.91
2023-03-25T19:47:52.421Z,97231.03
2023-03-25T19:50:57.184Z,97240.03
2023-03-25T19:53:58.846Z,97242.88
2023-03-25T19:57:00.636Z,97242.13
2023-03-25T20:00:08.179Z,97238.78
2023-03-25T20:03:13.620Z,97244.06
2023-03-25T20:06:15.489Z,97240.56
2023-03-25T20:09:17.162Z,97251.25
2023-03-25T20:12:18.685Z,97246.88
2023-03-25T20:15:21.162Z,97242.59
2023-03-25T20:18:24.089Z,97238.22
2023-03-25T20:21:25.916Z,97240.88
2023-03-25T20:24:27.573Z,97252.47
2023-03-25T20:27:29.379Z,97255.06
2023-03-25T20:30:33.946Z,97246.34
2023-03-25T20:33:37.240Z,97249.91
2023-03-25T20:36:39.078Z,97243.69
2023-03-25T20:39:41.162Z,97254.50
2023-03-25T20:42:44.053Z,97246.63
2023-03-25T20:45:45.879Z,97251.97
2023-03-25T20:48:49.014Z,97263.59
2023-03-25T20:51:51.303Z,97247.09
2023-03-25T20:54:53.183Z,97252.22
2023-03-25T20:57:55.114Z,97260.09
2023-03-25T21:00:59.140Z,97259.06
2023-03-25T21:04:03.414Z,97260.00
2023-03-25T21:07:06.012Z,97251.13
2023-03-25T21:10:08.826Z,97248.34
2023-03-25T21:13:10.858Z,97257.88
2023-03-25T21:16:13.985Z,97255.06
2023-03-25T21:19:19.531Z,97263.78
2023-03-25T21:22:21.871Z,97268.09
2023-03-25T21:25:23.478Z,97275.22
2023-03-25T21:28:25.875Z,97262.78
2023-03-25T21:31:28.703Z,97277.66
2023-03-25T21:34:31.930Z,97277.56
2023-03-25T21:37:39.054Z,97280.22
2023-03-25T21:40:41.693Z,97274.94
2023-03-25T21:43:44.334Z,97279.13
2023-03-25T21:46:45.894Z,97281.84
2023-03-25T21:49:50.246Z,97284.50
2023-03-25T21:52:51.894Z,97284.50
2023-03-25T21:55:55.623Z,97287.06
2023-03-25T21:59:03.466Z,97289.66
2023-03-25T22:02:05.883Z,97285.22
2023-03-25T22:05:09.665Z,97294.03
2023-03-25T22:08:12.084Z,97297.66
2023-03-25T22:11:15.697Z,97291.50
2023-03-25T22:14:17.318Z,97289.72
2023-03-25T22:17:18.986Z,97286.16
2023-03-25T22:20:22.274Z,97283.56
2023-03-25T22:23:24.264Z,97289.66
2023-03-25T22:26:26.920Z,97287.94
2023-03-25T22:29:28.622Z,97298.47
2023-03-25T22:32:30.473Z,97304.72
2023-03-25T22:35:33.973Z,97302.97
2023-03-25T22:38:35.809Z,97314.41
2023-03-25T22:41:37.471Z,97307.50
2023-03-25T22:44:40.349Z,97311.78
2023-03-25T22:47:42.238Z,97304.72
2023-03-25T22:50:45.528Z,97316.06
2023-03-25T22:53:47.604Z,97301.97
2023-03-25T22:56:52.654Z,97308.06
2023-03-25T22:59:55.853Z,97308.81
2023-03-25T23:02:57.684Z,97324.72
2023-03-25T23:06:02.167Z,97318.41
2023-03-25T23:09:04.360Z,97321.81
2023-03-25T23:12:06.536Z,97324.44
2023-03-25T23:15:08.319Z,97327.00
2023-03-25T23:18:10.403Z,97319.81
2023-03-25T23:21:14.910Z,97329.47
2023-03-25T23:24:16.765Z,97319.72
2023-03-25T23:27:18.461Z,97335.56
2023-03-25T23:30:20.983Z,97322.38
2023-03-25T23:33:22.713Z,97331.03
2023-03-25T23:36:26.217Z,97321.38
2023-03-25T23:39:27.983Z,97339.84
2023-03-25T23:42:35.545Z,97334.53
2023-03-25T23:45:37.571Z,97338.13
2023-03-25T23:48:42.073Z,97327.53
2023-03-25T23:51:45.578Z,97333.69
2023-03-25T23:54:48.851Z,97348.72
2023-03-25T23:57:50.737Z,97339.84
